地図

経路データ

SID SEASON NUMBER BASIN SUBBASIN NAME ISO_TIME NATURE LAT LON WMO_WIND WMO_PRES WMO_AGENCY TRACK_TYPE DIST2LAND LANDFALL IFLAG USA_AGENCY USA_ATCF_ID USA_LAT USA_LON USA_RECORD USA_STATUS USA_WIND USA_PRES USA_SSHS USA_R34_NE USA_R34_SE USA_R34_SW USA_R34_NW USA_R50_NE USA_R50_SE USA_R50_SW USA_R50_NW USA_R64_NE USA_R64_SE USA_R64_SW USA_R64_NW USA_POCI USA_ROCI USA_RMW USA_EYE TOKYO_LAT TOKYO_LON TOKYO_GRADE TOKYO_WIND TOKYO_PRES TOKYO_R50_DIR TOKYO_R50_LONG TOKYO_R50_SHORT TOKYO_R30_DIR TOKYO_R30_LONG TOKYO_R30_SHORT TOKYO_LAND CMA_LAT CMA_LON CMA_CAT CMA_WIND CMA_PRES HKO_LAT HKO_LON HKO_CAT HKO_WIND HKO_PRES NEWDELHI_LAT NEWDELHI_LON NEWDELHI_GRADE NEWDELHI_WIND NEWDELHI_PRES NEWDELHI_CI NEWDELHI_DP NEWDELHI_POCI REUNION_LAT REUNION_LON REUNION_TYPE REUNION_WIND REUNION_PRES REUNION_TNUM REUNION_CI REUNION_RMW REUNION_R34_NE REUNION_R34_SE REUNION_R34_SW REUNION_R34_NW REUNION_R50_NE REUNION_R50_SE REUNION_R50_SW REUNION_R50_NW REUNION_R64_NE REUNION_R64_SE REUNION_R64_SW REUNION_R64_NW BOM_LAT BOM_LON BOM_TYPE BOM_WIND BOM_PRES BOM_TNUM BOM_CI BOM_RMW BOM_R34_NE BOM_R34_SE BOM_R34_SW BOM_R34_NW BOM_R50_NE BOM_R50_SE BOM_R50_SW BOM_R50_NW BOM_R64_NE BOM_R64_SE BOM_R64_SW BOM_R64_NW BOM_ROCI BOM_POCI BOM_EYE BOM_POS_METHOD BOM_PRES_METHOD NADI_LAT NADI_LON NADI_CAT NADI_WIND NADI_PRES WELLINGTON_LAT WELLINGTON_LON WELLINGTON_WIND WELLINGTON_PRES DS824_LAT DS824_LON DS824_STAGE DS824_WIND DS824_PRES TD9636_LAT TD9636_LON TD9636_STAGE TD9636_WIND TD9636_PRES TD9635_LAT TD9635_LON TD9635_WIND TD9635_PRES TD9635_ROCI NEUMANN_LAT NEUMANN_LON NEUMANN_CLASS NEUMANN_WIND NEUMANN_PRES MLC_LAT MLC_LON MLC_CLASS MLC_WIND MLC_PRES USA_GUST BOM_GUST BOM_GUST_PER REUNION_GUST REUNION_GUST_PER USA_SEAHGT USA_SEARAD_NE USA_SEARAD_SE USA_SEARAD_SW USA_SEARAD_NW STORM_SPEED STORM_DIR
1968295N14256 1968 110 EP MM TARA 1968-10-20 12:00:00 TS 13.9000 -103.900 45 hurdat_epa main 479 468 O________OO___ hurdat_epa EP191968 13.9000 -103.900 TS 45 0 13.9000 -103.900 TC 45 13.9000 -103.900 2 10 297
1968295N14256 1968 110 EP MM TARA 1968-10-20 15:00:00 TS 14.1171 -104.347 main 472 464 P________PP___ EP191968 14.1177 -104.345 TS 45 0 14.1177 -104.345 TC 45 14.1147 -104.358 2 10 294
1968295N14256 1968 110 EP MM TARA 1968-10-20 18:00:00 TS 14.2987 -104.805 45 hurdat_epa main 468 464 O________OP___ hurdat_epa EP191968 14.3000 -104.800 TS 45 0 14.3000 -104.800 TC 45 14.2933 -104.823 2 10 288
1968295N14256 1968 110 EP MM TARA 1968-10-20 21:00:00 TS 14.4079 -105.282 main 476 476 P________PP___ EP191968 14.4098 -105.277 TS 45 0 14.4098 -105.277 TC 45 14.4002 -105.302 2 10 276
1968295N14256 1968 110 EP MM TARA 1968-10-21 00:00:00 TS 14.4000 -105.800 45 hurdat_epa main 500 500 O________OO___ hurdat_epa EP191968 14.4000 -105.800 TS 45 0 14.4000 -105.800 TC 45 14.4000 -105.800 2 11 261
1968295N14256 1968 110 EP MM TARA 1968-10-21 03:00:00 TS 14.2445 -106.379 main 553 553 P________PP___ EP191968 14.2375 -106.393 TS 45 0 14.2375 -106.393 TC 45 14.2726 -106.323 2 12 251
1968295N14256 1968 110 EP MM TARA 1968-10-21 06:00:00 TS 14.0118 -106.975 45 hurdat_epa main 609 609 O________OP___ hurdat_epa EP191968 14.0000 -107.000 TS 45 0 14.0000 -107.000 TC 45 14.0591 -106.877 2 12 248
1968295N14256 1968 110 EP MM TARA 1968-10-21 09:00:00 TS 13.7910 -107.521 main 660 660 P________PP___ EP191968 13.7847 -107.535 TS 45 0 13.7847 -107.535 TC 45 13.8162 -107.467 2 12 249
1968295N14256 1968 110 EP MM TARA 1968-10-21 12:00:00 TS 13.6000 -108.100 45 hurdat_epa main 718 718 O________OO___ hurdat_epa EP191968 13.6000 -108.100 TS 45 0 13.6000 -108.100 TC 45 13.6000 -108.100 2 13 256
1968295N14256 1968 110 EP MM TARA 1968-10-21 15:00:00 TS 13.4758 -108.780 main 767 767 P________PP___ EP191968 13.4774 -108.770 TS 45 0 13.4774 -108.770 TC 45 13.4694 -108.822 2 14 262
1968295N14256 1968 110 EP MM TARA 1968-10-21 18:00:00 TS 13.3952 -109.516 45 hurdat_epa main 820 820 O________OP___ hurdat_epa EP191968 13.4000 -109.500 TS 45 0 13.4000 -109.500 TC 45 13.3760 -109.580 2 15 264
1968295N14256 1968 110 EP MM TARA 1968-10-21 21:00:00 TS 13.3260 -110.289 main 883 883 P________PP___ EP191968 13.3276 -110.280 TS 45 0 13.3276 -110.280 TC 45 13.3195 -110.323 2 14 266
1968295N14256 1968 110 EP MM TARA 1968-10-22 00:00:00 TS 13.3000 -111.000 45 hurdat_epa main 934 934 O________OO___ hurdat_epa EP191968 13.3000 -111.000 TS 45 0 13.3000 -111.000 TC 45 13.3000 -111.000 2 12 270
1968295N14256 1968 110 EP MM TARA 1968-10-22 03:00:00 TS 13.3295 -111.544 main 973 973 P________PP___ EP191968 13.3347 -111.545 TS 45 0 13.3347 -111.545 TC 45 13.3088 -111.538 2 10 275
1968295N14256 1968 110 EP MM TARA 1968-10-22 06:00:00 TS 13.3907 -112.002 45 hurdat_epa main 1003 1003 O________OP___ hurdat_epa EP191968 13.4000 -112.000 TS 45 0 13.4000 -112.000 TC 45 13.3535 -112.010 2 9 277
1968295N14256 1968 110 EP MM TARA 1968-10-22 09:00:00 TS 13.4441 -112.444 main 1034 1034 P________PP___ EP191968 13.4498 -112.443 TS 45 0 13.4498 -112.443 TC 45 13.4215 -112.451 2 9 277
1968295N14256 1968 110 EP MM TARA 1968-10-22 12:00:00 TS 13.5000 -112.900 45 hurdat_epa main 1066 1066 O________OO___ hurdat_epa EP191968 13.5000 -112.900 TS 45 0 13.5000 -112.900 TC 45 13.5000 -112.900 2 10 276
1968295N14256 1968 110 EP MM TARA 1968-10-22 15:00:00 TS 13.5467 -113.437 main 1107 1104 P________PP___ EP191968 13.5425 -113.443 TS 45 0 13.5425 -113.443 TC 45 13.5636 -113.415 2 11 276
1968295N14256 1968 110 EP MM TARA 1968-10-22 18:00:00 TS 13.6070 -113.989 45 hurdat_epa main 1122 1122 O________OP___ hurdat_epa EP191968 13.6000 -114.000 TS 45 0 13.6000 -114.000 TC 45 13.6348 -113.943 2 10 278
1968295N14256 1968 110 EP MM TARA 1968-10-22 21:00:00 TS 13.6966 -114.501 main 1133 1133 P________PP___ EP191968 13.6924 -114.508 TS 45 0 13.6924 -114.508 TC 45 13.7136 -114.474 2 10 281
1968295N14256 1968 110 EP MM TARA 1968-10-23 00:00:00 TS 13.8000 -115.000 45 hurdat_epa main 1146 1146 O________OO___ hurdat_epa EP191968 13.8000 -115.000 TS 45 0 13.8000 -115.000 TC 45 13.8000 -115.000 2 10 282
1968295N14256 1968 110 EP MM TARA 1968-10-23 03:00:00 TS 13.8968 -115.502 main 1161 1161 P________PP___ EP191968 13.8999 -115.500 TS 45 0 13.8999 -115.500 TC 45 13.8844 -115.511 2 10 281
1968295N14256 1968 110 EP MM TARA 1968-10-23 06:00:00 TS 13.9954 -116.003 45 hurdat_epa main 1179 1179 O________OP___ hurdat_epa EP191968 14.0000 -116.000 TS 45 0 14.0000 -116.000 TC 45 13.9771 -116.015 2 10 281
1968295N14256 1968 110 EP MM TARA 1968-10-23 09:00:00 TS 14.0902 -116.502 main 1199 1199 P________PP___ EP191968 14.0924 -116.500 TS 45 0 14.0924 -116.500 TC 45 14.0813 -116.511 2 10 282
1968295N14256 1968 110 EP MM TARA 1968-10-23 12:00:00 TS 14.2000 -117.000 45 hurdat_epa main 1220 1220 O________OO___ hurdat_epa EP191968 14.2000 -117.000 TS 45 0 14.2000 -117.000 TC 45 14.2000 -117.000 2 10 285
1968295N14256 1968 110 EP MM TARA 1968-10-23 15:00:00 TS 14.3418 -117.502 main 1244 1235 P________PP___ EP191968 14.3424 -117.508 TS 45 0 14.3424 -117.508 TC 45 14.3393 -117.478 2 10 287
1968295N14256 1968 110 EP MM TARA 1968-10-23 18:00:00 TS 14.4984 -117.990 45 hurdat_epa main 1261 1260 O________OP___ hurdat_epa EP191968 14.5000 -118.000 TS 45 0 14.5000 -118.000 TC 45 14.4919 -117.950 2 10 289
1968295N14256 1968 110 EP MM TARA 1968-10-23 21:00:00 TS 14.6556 -118.444 main 1273 1273 P________PP___ EP191968 14.6573 -118.450 TS 45 0 14.6573 -118.450 TC 45 14.6486 -118.422 2 9 289
1968295N14256 1968 110 EP MM TARA 1968-10-24 00:00:00 TS 14.8000 -118.900 45 hurdat_epa main 1302 1302 O________OO___ hurdat_epa EP191968 14.8000 -118.900 TS 45 0 14.8000 -118.900 TC 45 14.8000 -118.900 2 10 285
1968295N14256 1968 110 EP MM TARA 1968-10-24 03:00:00 TS 14.9039 -119.395 main 1332 1332 P________PP___ EP191968 14.8999 -119.393 TS 45 0 14.8999 -119.393 TC 45 14.9199 -119.405 2 10 282
1968295N14256 1968 110 EP MM TARA 1968-10-24 06:00:00 TS 15.0070 -119.903 45 hurdat_epa main 1356 1356 O________OP___ hurdat_epa EP191968 15.0000 -119.900 TS 45 0 15.0000 -119.900 TC 45 15.0349 -119.916 2 10 284
1968295N14256 1968 110 EP MM TARA 1968-10-24 09:00:00 TS 15.1394 -120.410 main 1379 1377 P________PP___ EP191968 15.1349 -120.408 TS 45 0 15.1349 -120.408 TC 45 15.1575 -120.418 2 10 287
1968295N14256 1968 110 EP MM TARA 1968-10-24 12:00:00 TS 15.3000 -120.900 45 hurdat_epa main 1395 1393 O________OO___ hurdat_epa EP191968 15.3000 -120.900 TS 45 0 15.3000 -120.900 TC 45 15.3000 -120.900 2 10 291
1968295N14256 1968 110 EP MM TARA 1968-10-24 15:00:00 TS 15.4911 -121.361 main 1413 1412 P________PP___ EP191968 15.4924 -121.365 TS 45 0 15.4924 -121.365 TC 45 15.4860 -121.342 2 10 295
1968295N14256 1968 110 EP MM TARA 1968-10-24 18:00:00 TS 15.6984 -121.793 45 hurdat_epa main 1426 1425 O________OP___ hurdat_epa EP191968 15.7000 -121.800 TS 45 0 15.7000 -121.800 TC 45 15.6918 -121.765 2 9 297
1968295N14256 1968 110 EP MM TARA 1968-10-24 21:00:00 TS 15.9062 -122.196 main 1440 1439 P________PP___ EP191968 15.9073 -122.200 TS 45 0 15.9073 -122.200 TC 45 15.9017 -122.180 2 9 297
1968295N14256 1968 110 EP MM TARA 1968-10-25 00:00:00 TS 16.1000 -122.600 45 hurdat_epa main 1454 1454 O________OO___ hurdat_epa EP191968 16.1000 -122.600 TS 45 0 16.1000 -122.600 TC 45 16.1000 -122.600 2 9 293
1968295N14256 1968 110 EP MM TARA 1968-10-25 03:00:00 TS 16.2547 -123.039 main 1471 1471 P________PP___ EP191968 16.2575 -123.043 TS 45 0 16.2575 -123.043 TC 45 16.2435 -123.023 2 9 289
1968295N14256 1968 110 EP MM TARA 1968-10-25 06:00:00 TS 16.3953 -123.491 45 hurdat_epa main 1503 1503 O________OP___ hurdat_epa EP191968 16.4000 -123.500 TS 45 0 16.4000 -123.500 TC 45 16.3767 -123.456 2 9 288
1968295N14256 1968 110 EP MM TARA 1968-10-25 09:00:00 TS 16.5261 -123.930 main 1529 1529 P________PP___ EP191968 16.5273 -123.935 TS 45 0 16.5273 -123.935 TC 45 16.5215 -123.911 2 9 289
1968295N14256 1968 110 EP MM TARA 1968-10-25 12:00:00 TS 16.7000 -124.400 45 hurdat_epa main 1557 1557 O________OO___ hurdat_epa EP191968 16.7000 -124.400 TS 45 0 16.7000 -124.400 TC 45 16.7000 -124.400 2 11 295
1968295N14256 1968 110 EP MM TARA 1968-10-25 15:00:00 TS 16.9823 -124.934 main 1568 1568 P________PP___ EP191968 16.9849 -124.927 TS 45 0 16.9849 -124.927 TC 45 16.9719 -124.958 2 12 299
1968295N14256 1968 110 EP MM TARA 1968-10-25 18:00:00 TS 17.2946 -125.510 45 hurdat_epa main 1583 1582 O________OP___ hurdat_epa EP191968 17.3000 -125.500 TS 45 0 17.3000 -125.500 TC 45 17.2730 -125.548 2 13 298
1968295N14256 1968 110 EP MM TARA 1968-10-25 21:00:00 TS 17.5766 -126.120 main 1601 1601 P________PP___ EP191968 17.5801 -126.115 TS 45 0 17.5801 -126.115 TC 45 17.5626 -126.140 2 12 294
1968295N14256 1968 110 EP MM TARA 1968-10-26 00:00:00 TS 17.8000 -126.700 45 hurdat_epa main 1629 1629 O________OO___ hurdat_epa EP191968 17.8000 -126.700 TS 45 0 17.8000 -126.700 TC 45 17.8000 -126.700 2 11 289
1968295N14256 1968 110 EP MM TARA 1968-10-26 03:00:00 TS 17.9251 -127.169 main 1660 1660 P________PP___ EP191968 17.9297 -127.173 TS 45 0 17.9297 -127.173 TC 45 17.9068 -127.155 2 9 283
1968295N14256 1968 110 EP MM TARA 1968-10-26 06:00:00 TS 17.9926 -127.596 45 hurdat_epa main 1683 1683 O________OP___ hurdat_epa EP191968 18.0000 -127.600 TS 45 0 18.0000 -127.600 TC 45 17.9631 -127.580 2 8 277
1968295N14256 1968 110 EP MM TARA 1968-10-26 09:00:00 TS 18.0303 -128.019 main 1714 1714 P________PP___ EP191968 18.0347 -128.020 TS 45 0 18.0347 -128.020 TC 45 18.0129 -128.015 2 9 277
1968295N14256 1968 110 EP MM TARA 1968-10-26 12:00:00 TS 18.1000 -128.500 45 hurdat_epa main 1747 1747 O________OO___ hurdat_epa EP191968 18.1000 -128.500 TS 45 0 18.1000 -128.500 TC 45 18.1000 -128.500 2 11 283
1968295N14256 1968 110 EP MM TARA 1968-10-26 15:00:00 TS 18.2718 -129.120 main 1782 1782 P________PP___ EP191968 18.2701 -129.120 TS 45 0 18.2701 -129.120 TC 45 18.2786 -129.120 2 13 288
1968295N14256 1968 110 EP MM TARA 1968-10-26 18:00:00 TS 18.4997 -129.798 45 hurdat_epa main 1826 1826 O________OP___ hurdat_epa EP191968 18.5000 -129.800 TS 45 0 18.5000 -129.800 TC 45 18.4987 -129.792 2 14 290
1968295N14256 1968 110 EP MM TARA 1968-10-26 21:00:00 TS 18.7428 -130.471 main 1873 1866 P________PP___ EP191968 18.7425 -130.473 TS 45 0 18.7425 -130.473 TC 45 18.7443 -130.467 2 13 292
1968295N14256 1968 110 EP MM TARA 1968-10-27 00:00:00 TS 19.0000 -131.100 45 hurdat_epa main 1906 1906 O________OO___ hurdat_epa EP191968 19.0000 -131.100 TS 45 0 19.0000 -131.100 TC 45 19.0000 -131.100 2 12 295
1968295N14256 1968 110 EP MM TARA 1968-10-27 03:00:00 TS 19.2481 -131.629 main 1937 1937 P________PP___ EP191968 19.2497 -131.630 TS 45 0 19.2497 -131.630 TC 45 19.2416 -131.622 2 11 298
1968295N14256 1968 110 EP MM TARA 1968-10-27 06:00:00 TS 19.4982 -132.099 45 hurdat_epa main 1964 1964 O________OP___ hurdat_epa EP191968 19.5000 -132.100 TS 45 0 19.5000 -132.100 TC 45 19.4910 -132.096 2 10 300
1968295N14256 1968 110 EP MM TARA 1968-10-27 09:00:00 TS 19.7488 -132.550 main 1989 1989 P________PP___ EP191968 19.7498 -132.550 TS 45 0 19.7498 -132.550 TC 45 19.7449 -132.547 2 10 301
1968295N14256 1968 110 EP MM TARA 1968-10-27 12:00:00 TS 20.0000 -133.000 45 hurdat_epa main 2018 2018 O________OO___ hurdat_epa EP191968 20.0000 -133.000 TS 45 0 20.0000 -133.000 TC 45 20.0000 -133.000 6 10 299
1968295N14256 1968 110 EP MM TARA 1968-10-27 15:00:00 TS 20.2507 -133.494 main 2026 2026 P________PP___ EP191968 20.2499 -133.493 TS 35 0 20.2499 -133.493 TC 35 20.2539 -133.501 6 11 298
1968295N14256 1968 110 EP MM TARA 1968-10-27 18:00:00 TS 20.5015 -134.002 25 hurdat_epa main 2040 2037 O________OP___ hurdat_epa EP191968 20.5000 -134.000 TD 25 -1 20.5000 -134.000 TC 25 20.5073 -134.008 6 11 298
1968295N14256 1968 110 EP MM TARA 1968-10-27 21:00:00 TS 20.7513 -134.508 main 2046 2046 P________PP___ EP191968 20.7499 -134.508 TD 25 -1 20.7499 -134.508 TC 25 20.7570 -134.511 6 11 298
1968295N14256 1968 110 EP MM TARA 1968-10-28 00:00:00 TS 21.0000 -135.000 25 hurdat_epa main 2062 2029 O________OO___ hurdat_epa EP191968 21.0000 -135.000 TD 25 -1 21.0000 -135.000 TC 25 21.0000 -135.000 6 10 299
1968295N14256 1968 110 EP MM TARA 1968-10-28 03:00:00 TS 21.2527 -135.460 main 2019 1979 P________PP___ EP191968 21.2573 -135.458 TD 25 -1 21.2573 -135.458 TC 25 21.2341 -135.469 6 10 300
1968295N14256 1968 110 EP MM TARA 1968-10-28 06:00:00 TS 21.4921 -135.904 25 hurdat_epa main 1979 1939 O________OP___ hurdat_epa EP191968 21.5000 -135.900 TD 25 -1 21.5000 -135.900 TC 25 21.4607 -135.922 6 9 299
1968295N14256 1968 110 EP MM TARA 1968-10-28 09:00:00 TS 21.7046 -136.350 main 1929 1890 P________PP___ EP191968 21.7103 -136.347 TD 25 -1 21.7103 -136.347 TC 25 21.6819 -136.363 6 9 296
1968295N14256 1968 110 EP MM TARA 1968-10-28 12:00:00 TS 21.9000 -136.800 25 hurdat_epa main 1890 O________OO___ hurdat_epa EP191968 21.9000 -136.800 TD 25 -1 21.9000 -136.800 TC 25 21.9000 -136.800 6 9 295

IBTrACS Databaseについて

本データベースは、米国NOAAが公開する1842年以降の世界の熱帯低気圧のベストトラックデータアーカイブInternational Best Track Archive for Climate Stewardship (IBTrACS)を、ウェブで閲覧しやすい形式に変換したものです。

最終更新日:2021-10-21